KDRA

Desert Rock Airport

Mercury, Nevada, USA
METAR KDRA 172055Z AUTO 02013G17KT 10SM CLR 10/M09 A3008 RMK AO2 SLP172 T01001094 56023
Observed Flight Rules
Dec-17 @ 20:55 UTC (22 minutes ago) Visual Flight Rules
Wind Visibility Clouds
20° at 13 knots
 Gusting to 17 knots
10 miles
  • Clear skies
Temperatures Readings
Current 10°C / 50°F
Dewpoint -9°C / 16°F
Humidity 25%
Altimeter 30.08" Hg
Pressure 1017.2 hPa
Elevation 1006
METAR KDRA 172055Z AUTO 02013G17KT 10SM CLR 10/M09 A3008 RMK AO2 SLP172 T01001094 56023
Observed Flight Rules
Dec-17 @ 20:55 UTC
(22 minutes ago)
VFR
Wind Visibility
20° at 13 knots
 Gusting to 17 knots
10 miles
Clouds
  • Clear skies
Temperature Dewpoint
10°C / 50°F -9°C / 16°F
Humidity Altimeter Pressure
25% 30.08" Hg 1017.2 hPa